Topeka, KS (66618)

10:30 AM CDT on April 21, 2015 (GMT -0500)
Pleasant Hill Area | | Change Station
CLOSE
Current Station
Personal Weather Station
Location: Topeka, KS
Elevation: 1037 ft
Nearby Weather Stations

Elev 1037 ft 39.15 °N, 95.67 °W | Updated 7 minutes ago

Mostly Cloudy
Mostly Cloudy
57.6 °F
Feels Like 57.6 °F
N
2.2
Wind Variable Wind from SW

Today
High -- | Low -- °F
--% Chance of Precip.
Yesterday
High -- | Low -- °F
Precip. -- in
6:37 AM 8:05 PM
Waxing Crescent, 11% visible
Pressure 29.89 in
Visibility 10.0 miles
Clouds Scattered Clouds 12000 ft
Dew Point 35 °F
Humidity 42%
Rainfall 0.00 in
Snow Depth Not available.
UV 4 out of 12
Pollen 10.50 out of 12
Air Quality Not available.
Flu Activity Sporadic
METAR KTOP 211453Z 24005KT 10SM SCT120 13/02 A2989 RMK AO2 SLP122 T01280017 50003

More Conditions Fewer Conditions

Pressure 29.89 in
Visibility 10.0 miles
Clouds Scattered Clouds 12000 ft
Dew Point 35 °F
Humidity 42%
Rainfall 0.00 in
Snow Depth Not available.
UV 4 out of 12
Pollen 10.50 out of 12
Air Quality Not available.
Flu Activity Sporadic
METAR KTOP 211453Z 24005KT 10SM SCT120 13/02 A2989 RMK AO2 SLP122 T01280017 50003

More Conditions Fewer Conditions

10-Day Weather Forecast

Almanac

Astronomy

Apr. 21, 2015 Rise Set
Actual Time
Civil Twilight
Nautical Twilight
Astronomical Twilight
Moon
Length of Visible Light
Length of Day
Tomorrow will be .
, % of the Moon is Illuminated

Today's Extremes

State Highs State Lows

Community

WunderPhotos

Upload Photos

1,815,422 photos uploaded!

WunderBlogs® & News

Nearby

Air Quality

  Air Quality AQ Index Pollutant
Not available.

Snow Depth

Station Depth Elevation

Earthquake Activity

City Distance Mag. Time & Date
Minimum magnitude displayed is 2.5.

Coastal Water Temperatures

Place Temperature

Stations

Nearby Weather Stations

Station Location Temp. Windchill Dew Point Humidity Wind Precip. Elev Updated Type